Time;durP1;ratioP1;P1;durP2;ratioP2;P2;SDS_P1;SDS_P2;PMS_P1;PMS_P2;Temp;Humidity;BMP_temperature;BMP_pressure;BME280_temperature;BME280_humidity;BME280_pressure;Samples;Min_cycle;Max_cycle;Signal;HPM_P1;HPM_P2
2022/05/29 00:01:02;;;;;;;5.82;1.27;;;;;;;;;;4909544;28;20048;-70
2022/05/29 00:03:27;;;;;;;5.70;1.13;;;;;;;;;;4909746;28;20633;-70
2022/05/29 00:05:53;;;;;;;6.55;1.20;;;;;;;;;;4912132;28;20023;-69
2022/05/29 00:08:28;;;;;;;6.07;1.23;;;;;;;;;;4909777;29;20034;-70
2022/05/29 00:10:54;;;;;;;2.92;1.00;;;;;;;;;;4909045;28;20044;-68
2022/05/29 00:13:20;;;;;;;6.53;1.40;;;;;;;;;;4936643;28;20476;-71
2022/05/29 00:15:48;;;;;;;7.00;1.55;;;;;;;;;;4910243;28;20146;-70
2022/05/29 00:18:14;;;;;;;5.90;1.40;;;;;;;;;;4938809;28;20216;-72
2022/05/29 00:20:40;;;;;;;5.38;1.10;;;;;;;;;;4911551;28;20384;-69
2022/05/29 00:23:06;;;;;;;3.60;1.05;;;;;;;;;;4911070;29;20028;-71
2022/05/29 00:25:32;;;;;;;5.82;1.50;;;;;;;;;;4909455;28;20043;-71
2022/05/29 00:27:58;;;;;;;6.45;1.52;;;;;;;;;;4910691;29;20127;-70
2022/05/29 00:30:23;;;;;;;3.45;1.30;;;;;;;;;;4910204;28;20044;-69
2022/05/29 00:32:49;;;;;;;6.65;1.13;;;;;;;;;;4911370;28;20035;-70
2022/05/29 00:35:14;;;;;;;8.63;1.67;;;;;;;;;;4911519;29;20504;-71
2022/05/29 00:37:41;;;;;;;5.55;1.02;;;;;;;;;;4908529;28;20664;-69
2022/05/29 00:40:39;;;;;;;5.82;1.10;;;;;;;;;;4911539;28;20046;-66
2022/05/29 00:43:05;;;;;;;6.55;1.23;;;;;;;;;;4910400;28;20128;-70
2022/05/29 00:45:44;;;;;;;9.77;1.30;;;;;;;;;;4937316;28;20052;-71
2022/05/29 00:48:14;;;;;;;4.03;1.27;;;;;;;;;;4908680;28;20039;-69
2022/05/29 00:50:40;;;;;;;8.00;1.48;;;;;;;;;;4908445;28;20042;-72
2022/05/29 00:53:07;;;;;;;6.57;1.55;;;;;;;;;;4935486;28;20542;-69
2022/05/29 00:55:33;;;;;;;5.45;1.25;;;;;;;;;;4906314;28;20039;-72
2022/05/29 00:58:02;;;;;;;4.30;1.38;;;;;;;;;;4911970;28;20095;-69
2022/05/29 01:00:29;;;;;;;6.72;1.25;;;;;;;;;;4914224;29;20035;-74
2022/05/29 01:02:56;;;;;;;5.82;1.20;;;;;;;;;;4912827;28;20478;-72
2022/05/29 01:05:25;;;;;;;6.97;1.20;;;;;;;;;;4913257;29;20038;-72
2022/05/29 01:08:13;;;;;;;4.75;1.25;;;;;;;;;;4914448;28;20255;-73
2022/05/29 01:11:16;;;;;;;6.70;1.45;;;;;;;;;;4938514;28;20106;-71
2022/05/29 01:13:53;;;;;;;3.58;0.95;;;;;;;;;;4915362;28;21169;-72
2022/05/29 01:16:49;;;;;;;3.55;1.10;;;;;;;;;;4912762;28;20095;-72
2022/05/29 01:19:50;;;;;;;5.03;1.08;;;;;;;;;;4912061;28;20043;-72
2022/05/29 01:22:50;;;;;;;4.85;1.65;;;;;;;;;;4909524;28;20047;-69
2022/05/29 01:25:27;;;;;;;3.95;1.42;;;;;;;;;;4914431;28;20040;-73
2022/05/29 01:28:05;;;;;;;5.00;0.95;;;;;;;;;;4938663;28;20073;-70
2022/05/29 01:30:37;;;;;;;4.25;1.00;;;;;;;;;;4941151;28;20063;-69
2022/05/29 01:33:22;;;;;;;4.60;1.02;;;;;;;;;;4928533;28;20050;-75
2022/05/29 01:35:53;;;;;;;5.20;1.50;;;;;;;;;;4913939;28;20110;-73
2022/05/29 01:38:31;;;;;;;5.20;1.08;;;;;;;;;;4914837;29;20389;-74
2022/05/29 01:41:15;;;;;;;8.05;1.60;;;;;;;;;;4912138;28;20036;-71
2022/05/29 01:43:44;;;;;;;3.80;1.10;;;;;;;;;;4913051;29;20036;-72
2022/05/29 01:46:32;;;;;;;4.43;1.20;;;;;;;;;;4926237;28;20047;-71
2022/05/29 01:49:29;;;;;;;2.70;1.35;;;;;;;;;;4911862;28;21071;-73
2022/05/29 01:52:23;;;;;;;7.13;1.95;;;;;;;;;;4914029;28;20534;-71
2022/05/29 01:55:02;;;;;;;5.75;1.05;;;;;;;;;;4875933;29;20052;-72
2022/05/29 01:57:37;;;;;;;6.32;1.05;;;;;;;;;;4912103;28;20119;-75
2022/05/29 02:00:07;;;;;;;7.35;1.20;;;;;;;;;;4908886;28;22607;-71
2022/05/29 02:03:09;;;;;;;4.10;1.08;;;;;;;;;;4911450;29;20024;-72
2022/05/29 02:05:39;;;;;;;3.55;1.10;;;;;;;;;;4912369;29;20518;-74
2022/05/29 02:08:12;;;;;;;6.60;1.40;;;;;;;;;;4914006;29;20121;-69
2022/05/29 02:10:53;;;;;;;13.20;1.25;;;;;;;;;;4910366;28;20046;-74
2022/05/29 02:13:42;;;;;;;6.40;1.30;;;;;;;;;;4913436;29;20036;-72
2022/05/29 02:16:12;;;;;;;7.28;1.00;;;;;;;;;;4910675;28;20082;-70
2022/05/29 02:18:53;;;;;;;3.67;0.98;;;;;;;;;;4910078;28;20056;-74
2022/05/29 02:21:29;;;;;;;3.85;1.02;;;;;;;;;;4912651;28;20292;-76
2022/05/29 02:23:58;;;;;;;3.33;1.20;;;;;;;;;;4911254;29;20460;-71
2022/05/29 02:26:28;;;;;;;4.72;1.05;;;;;;;;;;4911804;29;20051;-75
2022/05/29 02:28:59;;;;;;;5.68;1.30;;;;;;;;;;4913125;28;20450;-71
2022/05/29 02:32:00;;;;;;;5.45;1.23;;;;;;;;;;4910942;28;20044;-71
2022/05/29 02:34:28;;;;;;;5.15;1.13;;;;;;;;;;4912837;28;20040;-72
2022/05/29 02:37:09;;;;;;;4.35;1.00;;;;;;;;;;4912041;28;20127;-73
2022/05/29 02:39:54;;;;;;;4.47;1.00;;;;;;;;;;4925365;28;20534;-72
2022/05/29 02:42:37;;;;;;;3.40;1.27;;;;;;;;;;4912175;28;20724;-75
2022/05/29 02:45:23;;;;;;;6.13;1.30;;;;;;;;;;4912194;28;20047;-72
2022/05/29 02:48:01;;;;;;;4.85;1.20;;;;;;;;;;4911967;28;20039;-71
2022/05/29 02:50:53;;;;;;;6.53;2.17;;;;;;;;;;4915108;29;20035;-71
2022/05/29 02:53:18;;;;;;;3.50;1.08;;;;;;;;;;4913885;29;20727;-73
2022/05/29 02:55:44;;;;;;;3.05;1.08;;;;;;;;;;4912163;29;20055;-75
2022/05/29 02:58:23;;;;;;;6.07;1.45;;;;;;;;;;4910783;28;20158;-72
2022/05/29 03:01:13;;;;;;;4.93;1.30;;;;;;;;;;4913725;28;20044;-70
2022/05/29 03:04:21;;;;;;;4.82;1.50;;;;;;;;;;4925848;28;20406;-70
2022/05/29 03:07:02;;;;;;;6.80;1.15;;;;;;;;;;4906791;29;20058;-70
2022/05/29 03:09:46;;;;;;;3.80;1.00;;;;;;;;;;4911723;28;20036;-70
2022/05/29 03:12:52;;;;;;;4.60;1.20;;;;;;;;;;4913143;28;20048;-69
2022/05/29 03:15:55;;;;;;;17.63;1.85;;;;;;;;;;4910903;29;20039;-70
2022/05/29 03:18:42;;;;;;;7.15;1.20;;;;;;;;;;4913290;28;20103;-69
2022/05/29 03:21:22;;;;;;;5.40;1.50;;;;;;;;;;4912317;28;20627;-70
2022/05/29 03:24:18;;;;;;;5.68;1.23;;;;;;;;;;4914346;28;20074;-70
2022/05/29 03:27:30;;;;;;;8.13;1.48;;;;;;;;;;4911794;28;20037;-69
2022/05/29 03:30:01;;;;;;;6.07;1.30;;;;;;;;;;4907170;28;20492;-70
2022/05/29 03:32:27;;;;;;;3.30;0.90;;;;;;;;;;4913430;29;20517;-70
2022/05/29 03:34:53;;;;;;;4.25;1.27;;;;;;;;;;4915191;28;20043;-70
2022/05/29 03:37:19;;;;;;;5.60;1.20;;;;;;;;;;4914802;28;22288;-70
2022/05/29 03:39:44;;;;;;;10.50;1.40;;;;;;;;;;4913974;28;20216;-69
2022/05/29 03:42:10;;;;;;;4.40;1.33;;;;;;;;;;4912004;28;20097;-68
2022/05/29 03:44:36;;;;;;;5.78;1.50;;;;;;;;;;4913716;29;20065;-69
2022/05/29 03:47:01;;;;;;;5.90;1.20;;;;;;;;;;4913150;28;20407;-68
2022/05/29 03:49:26;;;;;;;8.80;1.88;;;;;;;;;;4913093;28;20043;-70
2022/05/29 03:51:52;;;;;;;5.90;1.35;;;;;;;;;;4914064;28;20051;-69
2022/05/29 03:54:18;;;;;;;5.03;1.58;;;;;;;;;;4914819;28;20871;-69
2022/05/29 03:56:43;;;;;;;6.15;1.67;;;;;;;;;;4913479;28;20042;-70
2022/05/29 03:59:09;;;;;;;9.35;1.58;;;;;;;;;;4912538;29;20495;-68
2022/05/29 04:01:35;;;;;;;8.32;1.17;;;;;;;;;;4910711;28;20043;-71
2022/05/29 04:04:01;;;;;;;6.57;1.10;;;;;;;;;;4914467;28;20043;-70
2022/05/29 04:06:28;;;;;;;4.45;1.00;;;;;;;;;;4912625;28;20467;-69
2022/05/29 04:14:28;;;;;;;2.97;1.23;;;;;;;;;;4913764;29;20063;-69
2022/05/29 04:16:53;;;;;;;3.78;1.17;;;;;;;;;;4913409;28;20047;-70
2022/05/29 04:19:19;;;;;;;3.05;1.00;;;;;;;;;;4911436;28;20062;-69
2022/05/29 04:21:46;;;;;;;4.72;1.38;;;;;;;;;;4910306;28;20653;-69
2022/05/29 04:24:11;;;;;;;5.93;1.20;;;;;;;;;;4912750;28;20065;-69
2022/05/29 04:26:37;;;;;;;3.55;0.95;;;;;;;;;;4911348;29;20133;-69
2022/05/29 04:29:04;;;;;;;6.80;1.73;;;;;;;;;;4911269;28;20112;-69
2022/05/29 04:31:32;;;;;;;4.40;1.08;;;;;;;;;;4911033;28;20044;-69
2022/05/29 04:33:58;;;;;;;6.00;1.10;;;;;;;;;;4942325;28;20484;-70
2022/05/29 04:36:24;;;;;;;10.65;1.65;;;;;;;;;;4942935;28;20036;-70
2022/05/29 04:38:51;;;;;;;6.93;1.00;;;;;;;;;;4914675;28;20044;-69
2022/05/29 04:41:19;;;;;;;5.45;1.40;;;;;;;;;;4913671;29;20838;-69
2022/05/29 04:43:45;;;;;;;4.53;1.23;;;;;;;;;;4912443;28;20503;-69
2022/05/29 04:46:10;;;;;;;9.05;1.20;;;;;;;;;;4914284;28;20058;-69
2022/05/29 04:48:36;;;;;;;3.88;0.85;;;;;;;;;;4916587;29;20043;-70
2022/05/29 04:51:05;;;;;;;4.72;1.25;;;;;;;;;;4913501;28;21321;-69
2022/05/29 04:53:31;;;;;;;4.72;0.90;;;;;;;;;;4928040;28;20039;-69
2022/05/29 04:55:58;;;;;;;3.67;0.95;;;;;;;;;;4930318;28;20044;-69
2022/05/29 04:58:26;;;;;;;3.67;0.90;;;;;;;;;;4916040;28;20571;-70
2022/05/29 05:01:03;;;;;;;5.57;1.50;;;;;;;;;;4914823;28;20753;-70
2022/05/29 05:03:29;;;;;;;4.25;0.90;;;;;;;;;;4916159;28;20385;-70
2022/05/29 05:05:55;;;;;;;4.93;1.08;;;;;;;;;;4914211;28;20035;-70
2022/05/29 05:08:20;;;;;;;3.22;0.98;;;;;;;;;;4912956;29;20028;-69
2022/05/29 05:10:46;;;;;;;7.53;1.42;;;;;;;;;;4914471;29;20051;-69
2022/05/29 05:13:12;;;;;;;3.67;1.00;;;;;;;;;;4913174;28;20039;-71
2022/05/29 05:15:37;;;;;;;7.80;1.13;;;;;;;;;;4915249;28;22958;-69
2022/05/29 05:18:03;;;;;;;2.72;0.80;;;;;;;;;;4915039;28;20048;-69
2022/05/29 05:20:30;;;;;;;2.60;0.90;;;;;;;;;;4915169;29;20059;-68
2022/05/29 05:22:57;;;;;;;4.70;1.00;;;;;;;;;;4927461;28;20052;-70
2022/05/29 05:25:23;;;;;;;5.57;0.98;;;;;;;;;;4914417;28;20500;-70
2022/05/29 05:27:49;;;;;;;5.07;1.00;;;;;;;;;;4914675;28;20142;-68
2022/05/29 05:30:14;;;;;;;3.92;0.88;;;;;;;;;;4915555;28;20380;-69
2022/05/29 05:32:40;;;;;;;8.55;1.20;;;;;;;;;;4914602;28;20027;-68
2022/05/29 05:35:07;;;;;;;2.75;0.75;;;;;;;;;;4942900;28;20028;-70
2022/05/29 05:37:38;;;;;;;4.80;1.33;;;;;;;;;;4915338;28;20047;-70
2022/05/29 05:40:07;;;;;;;2.13;0.60;;;;;;;;;;4913931;29;20047;-69
2022/05/29 05:42:33;;;;;;;5.55;1.02;;;;;;;;;;4914869;28;20039;-70
2022/05/29 05:44:58;;;;;;;6.22;1.20;;;;;;;;;;4913505;28;20054;-69
2022/05/29 05:47:24;;;;;;;7.32;1.30;;;;;;;;;;4914764;29;20035;-68
2022/05/29 05:49:50;;;;;;;4.57;1.15;;;;;;;;;;4915835;28;20043;-70
2022/05/29 05:52:17;;;;;;;5.80;1.10;;;;;;;;;;4944760;28;20048;-70
2022/05/29 05:54:43;;;;;;;6.82;1.20;;;;;;;;;;4943468;28;20047;-67
2022/05/29 05:57:09;;;;;;;5.15;0.90;;;;;;;;;;4915079;28;20462;-68
2022/05/29 05:59:36;;;;;;;4.45;0.93;;;;;;;;;;4945135;28;20027;-70
2022/05/29 06:02:02;;;;;;;4.75;1.27;;;;;;;;;;4915927;28;20173;-70
2022/05/29 06:04:28;;;;;;;3.85;1.00;;;;;;;;;;4916938;28;20134;-71
2022/05/29 06:06:54;;;;;;;5.05;0.90;;;;;;;;;;4913620;28;20491;-70
2022/05/29 06:09:21;;;;;;;5.32;0.90;;;;;;;;;;4914576;28;20044;-71
2022/05/29 06:11:47;;;;;;;9.05;1.40;;;;;;;;;;4914178;28;20055;-70
2022/05/29 06:14:12;;;;;;;7.53;1.58;;;;;;;;;;4912869;29;20708;-70
2022/05/29 06:16:38;;;;;;;5.95;0.90;;;;;;;;;;4912828;28;20047;-69
2022/05/29 06:19:07;;;;;;;4.13;1.15;;;;;;;;;;4911677;29;20601;-69
2022/05/29 06:21:34;;;;;;;4.00;1.17;;;;;;;;;;4930077;28;20050;-69
2022/05/29 06:24:01;;;;;;;3.13;0.95;;;;;;;;;;4912268;28;20051;-69
2022/05/29 06:26:27;;;;;;;4.25;1.05;;;;;;;;;;4916680;29;20502;-70
2022/05/29 06:28:53;;;;;;;5.40;1.15;;;;;;;;;;4912969;28;20784;-69
2022/05/29 06:31:19;;;;;;;5.68;1.10;;;;;;;;;;4913746;29;20922;-69
2022/05/29 06:33:46;;;;;;;4.57;1.95;;;;;;;;;;4913833;28;20048;-70
2022/05/29 06:36:17;;;;;;;5.80;1.10;;;;;;;;;;4917112;28;20501;-69
2022/05/29 06:38:47;;;;;;;4.78;0.90;;;;;;;;;;4913803;28;20095;-69
2022/05/29 06:41:14;;;;;;;3.10;1.05;;;;;;;;;;4913489;29;20032;-71
2022/05/29 06:43:40;;;;;;;4.45;1.20;;;;;;;;;;4913400;28;20442;-70
2022/05/29 06:46:07;;;;;;;4.53;1.08;;;;;;;;;;4910340;28;20051;-70
2022/05/29 06:48:35;;;;;;;5.88;0.93;;;;;;;;;;4915043;28;20044;-69
2022/05/29 06:51:10;;;;;;;3.28;1.00;;;;;;;;;;4913959;28;20046;-71
2022/05/29 06:53:36;;;;;;;5.35;1.20;;;;;;;;;;4912387;29;20487;-70
2022/05/29 06:56:03;;;;;;;2.45;0.90;;;;;;;;;;4913668;28;20046;-71
2022/05/29 06:58:29;;;;;;;7.35;1.67;;;;;;;;;;4913225;28;20052;-70
2022/05/29 07:09:08;;;;;;;4.03;1.05;;;;;;;;;;4913158;28;20111;-70
2022/05/29 07:11:36;;;;;;;4.90;1.00;;;;;;;;;;4913260;29;20071;-69
2022/05/29 07:14:05;;;;;;;4.95;0.90;;;;;;;;;;4909730;28;21107;-70
2022/05/29 07:16:34;;;;;;;2.92;0.70;;;;;;;;;;4912812;28;20080;-70
2022/05/29 07:19:10;;;;;;;4.63;1.02;;;;;;;;;;4911182;29;20046;-68
2022/05/29 07:21:38;;;;;;;4.45;1.02;;;;;;;;;;4939849;28;20058;-70
2022/05/29 07:24:04;;;;;;;4.30;1.52;;;;;;;;;;4911289;28;20760;-71
2022/05/29 07:26:30;;;;;;;2.53;0.88;;;;;;;;;;4911984;29;20051;-70
2022/05/29 07:28:55;;;;;;;2.88;0.68;;;;;;;;;;4912474;29;20047;-70
2022/05/29 07:31:21;;;;;;;3.22;0.80;;;;;;;;;;4911646;28;20547;-70
2022/05/29 07:33:46;;;;;;;2.95;0.63;;;;;;;;;;4909907;28;20058;-68
2022/05/29 07:36:12;;;;;;;2.60;0.70;;;;;;;;;;4914260;28;20044;-70
2022/05/29 07:38:38;;;;;;;3.13;0.70;;;;;;;;;;4912862;29;20106;-69
2022/05/29 07:43:18;;;;;;;3.53;0.68;;;;;;;;;;4913935;29;20359;-69
2022/05/29 07:43:53;;;;;;;3.72;1.23;;;;;;;;;;4910381;28;20090;-69
2022/05/29 07:46:19;;;;;;;2.08;0.60;;;;;;;;;;4911317;28;20044;-71
2022/05/29 07:48:45;;;;;;;2.17;0.82;;;;;;;;;;4913758;28;20036;-70
2022/05/29 07:51:10;;;;;;;4.43;0.80;;;;;;;;;;4908406;28;20063;-68
2022/05/29 07:53:37;;;;;;;4.93;1.00;;;;;;;;;;4912756;29;20099;-69
2022/05/29 07:56:03;;;;;;;4.35;0.75;;;;;;;;;;4912026;28;20036;-71
2022/05/29 07:58:29;;;;;;;3.97;0.68;;;;;;;;;;4911707;28;20036;-71
2022/05/29 08:00:54;;;;;;;4.07;0.70;;;;;;;;;;4912707;28;20089;-71
2022/05/29 08:03:22;;;;;;;2.58;0.70;;;;;;;;;;4911154;28;20044;-70
2022/05/29 08:05:47;;;;;;;1.98;0.60;;;;;;;;;;4912299;29;20035;-70
2022/05/29 08:08:13;;;;;;;2.92;0.77;;;;;;;;;;4910770;29;20398;-70
2022/05/29 08:10:40;;;;;;;3.50;0.73;;;;;;;;;;4912349;28;20785;-71
2022/05/29 08:13:06;;;;;;;1.73;0.80;;;;;;;;;;4910448;28;20171;-70
2022/05/29 08:15:32;;;;;;;4.20;0.90;;;;;;;;;;4911379;29;21679;-70
2022/05/29 08:17:57;;;;;;;2.03;0.45;;;;;;;;;;4912190;28;23149;-70
2022/05/29 08:20:23;;;;;;;4.00;0.80;;;;;;;;;;4911952;29;20044;-71
2022/05/29 08:22:48;;;;;;;3.38;0.60;;;;;;;;;;4940660;28;20040;-69
2022/05/29 08:30:51;;;;;;;3.50;0.93;;;;;;;;;;4910247;28;20143;-71
2022/05/29 08:33:22;;;;;;;4.07;0.60;;;;;;;;;;4910423;28;20068;-70
2022/05/29 08:36:00;;;;;;;2.70;0.52;;;;;;;;;;4909801;28;20422;-69
2022/05/29 08:38:26;;;;;;;2.85;0.55;;;;;;;;;;4912453;29;20543;-71
2022/05/29 08:40:54;;;;;;;1.77;0.85;;;;;;;;;;4911492;28;20102;-70
2022/05/29 08:43:27;;;;;;;2.58;0.50;;;;;;;;;;4938975;28;20178;-67
2022/05/29 08:45:53;;;;;;;2.70;0.88;;;;;;;;;;4926680;28;20159;-70
2022/05/29 08:48:22;;;;;;;2.97;0.70;;;;;;;;;;4910345;28;20193;-70
2022/05/29 08:51:04;;;;;;;1.80;0.55;;;;;;;;;;4911281;28;20042;-70
2022/05/29 08:54:08;;;;;;;2.78;0.80;;;;;;;;;;4911932;29;20105;-70
2022/05/29 08:56:43;;;;;;;1.40;0.50;;;;;;;;;;4907301;29;20048;-70
2022/05/29 08:59:38;;;;;;;3.00;1.25;;;;;;;;;;4911054;29;20082;-70
2022/05/29 09:02:35;;;;;;;1.85;0.70;;;;;;;;;;4913322;28;20546;-71
2022/05/29 09:05:13;;;;;;;1.48;0.57;;;;;;;;;;4912617;28;20043;-70
2022/05/29 09:07:41;;;;;;;2.55;0.80;;;;;;;;;;4915638;28;20228;-70
2022/05/29 09:10:38;;;;;;;2.05;0.70;;;;;;;;;;4910308;28;22473;-71
2022/05/29 09:13:09;;;;;;;1.95;0.85;;;;;;;;;;4911066;28;20420;-71
2022/05/29 09:15:43;;;;;;;2.95;1.08;;;;;;;;;;4912633;28;20051;-69
2022/05/29 09:18:19;;;;;;;4.30;0.80;;;;;;;;;;4910868;28;20043;-71
2022/05/29 09:20:54;;;;;;;2.95;0.70;;;;;;;;;;4913664;28;20166;-71
2022/05/29 09:23:31;;;;;;;4.07;0.80;;;;;;;;;;4915999;29;20111;-70
2022/05/29 09:25:57;;;;;;;4.07;0.70;;;;;;;;;;4916056;28;20036;-71
2022/05/29 09:28:36;;;;;;;1.75;0.73;;;;;;;;;;4914361;28;20143;-70
2022/05/29 09:31:07;;;;;;;3.00;0.65;;;;;;;;;;4915993;28;20043;-70
2022/05/29 09:33:32;;;;;;;1.65;0.63;;;;;;;;;;4917456;29;20500;-70
2022/05/29 09:36:12;;;;;;;2.15;0.50;;;;;;;;;;4917458;28;20027;-72
2022/05/29 09:39:05;;;;;;;2.80;0.85;;;;;;;;;;4916146;29;20031;-71
2022/05/29 09:42:04;;;;;;;1.90;0.82;;;;;;;;;;4916642;29;20464;-71
2022/05/29 09:44:30;;;;;;;2.47;0.60;;;;;;;;;;4915521;29;20048;-70
2022/05/29 09:49:40;;;;;;;1.25;0.57;;;;;;;;;;4931470;28;20774;-70
2022/05/29 09:49:41;;;;;;;4.47;0.95;;;;;;;;;;4916043;28;20995;-71
2022/05/29 09:52:18;;;;;;;2.35;0.68;;;;;;;;;;4913617;28;20048;-71
2022/05/29 09:54:51;;;;;;;1.40;0.60;;;;;;;;;;4941392;28;20078;-72
2022/05/29 09:57:19;;;;;;;3.97;0.65;;;;;;;;;;4913139;29;20408;-71
2022/05/29 09:59:46;;;;;;;3.13;0.65;;;;;;;;;;4909827;28;20055;-68
2022/05/29 10:02:25;;;;;;;0.95;0.73;;;;;;;;;;4944195;28;20059;-70
2022/05/29 10:04:56;;;;;;;2.28;0.60;;;;;;;;;;4917968;28;20047;-68
2022/05/29 10:07:44;;;;;;;3.47;0.60;;;;;;;;;;4926785;28;20047;-70
2022/05/29 10:10:13;;;;;;;2.20;0.73;;;;;;;;;;4912213;28;20073;-70
2022/05/29 10:12:47;;;;;;;3.00;1.08;;;;;;;;;;4914126;28;20079;-70
2022/05/29 10:15:37;;;;;;;2.33;0.80;;;;;;;;;;4912941;28;21989;-69
2022/05/29 10:18:33;;;;;;;3.55;0.70;;;;;;;;;;4915680;28;20512;-72
2022/05/29 10:21:22;;;;;;;1.30;0.50;;;;;;;;;;4912322;28;20505;-71
2022/05/29 10:23:54;;;;;;;1.00;0.68;;;;;;;;;;4911898;28;20059;-71
2022/05/29 10:26:22;;;;;;;1.30;0.50;;;;;;;;;;4917013;29;20721;-71
2022/05/29 10:28:49;;;;;;;4.38;1.08;;;;;;;;;;4913402;28;20071;-70
2022/05/29 10:31:22;;;;;;;2.22;1.05;;;;;;;;;;4913614;28;20043;-70
2022/05/29 10:34:05;;;;;;;1.67;0.85;;;;;;;;;;4912355;28;20630;-71
2022/05/29 10:36:31;;;;;;;;;;;;;;;;;;4941055;28;20078;-68
2022/05/29 10:39:13;;;;;;;4.20;1.48;;;;;;;;;;4916195;28;20425;-69
2022/05/29 10:41:41;;;;;;;3.92;0.70;;;;;;;;;;4915443;29;20296;-69
2022/05/29 10:44:14;;;;;;;4.95;1.00;;;;;;;;;;4914093;29;20075;-74
2022/05/29 10:46:55;;;;;;;4.35;0.85;;;;;;;;;;4941198;28;20063;-72
2022/05/29 10:49:39;;;;;;;3.03;0.95;;;;;;;;;;4917337;29;20042;-73
2022/05/29 10:52:41;;;;;;;2.67;0.82;;;;;;;;;;4914262;28;20039;-71
2022/05/29 10:55:19;;;;;;;3.38;0.60;;;;;;;;;;4914035;28;20400;-73
2022/05/29 10:58:22;;;;;;;1.40;0.60;;;;;;;;;;4942089;28;20046;-74
2022/05/29 11:04:35;;;;;;;1.85;0.60;;;;;;;;;;4914397;28;20059;-73
2022/05/29 11:07:01;;;;;;;2.03;0.52;;;;;;;;;;4927286;28;20124;-73
2022/05/29 11:09:51;;;;;;;2.35;0.75;;;;;;;;;;4942786;28;20075;-73
2022/05/29 11:12:39;;;;;;;2.80;0.60;;;;;;;;;;4910967;28;20047;-72
2022/05/29 11:15:19;;;;;;;2.53;0.70;;;;;;;;;;4909575;28;20090;-71
2022/05/29 11:18:02;;;;;;;2.42;0.80;;;;;;;;;;4912438;28;20039;-70
2022/05/29 11:21:06;;;;;;;1.98;0.60;;;;;;;;;;4940072;28;20114;-72
2022/05/29 11:23:47;;;;;;;2.45;0.70;;;;;;;;;;4902976;29;20082;-73
2022/05/29 11:26:24;;;;;;;2.67;0.68;;;;;;;;;;4907481;29;20520;-71
2022/05/29 11:29:15;;;;;;;2.03;0.60;;;;;;;;;;4908033;28;20055;-71
2022/05/29 11:31:49;;;;;;;2.13;0.73;;;;;;;;;;4909903;28;20391;-71
2022/05/29 11:34:52;;;;;;;1.88;0.70;;;;;;;;;;4909856;28;21721;-71
2022/05/29 11:37:51;;;;;;;2.10;0.68;;;;;;;;;;4908178;28;20122;-72
2022/05/29 11:40:27;;;;;;;1.92;0.55;;;;;;;;;;4909537;28;20105;-72
2022/05/29 11:43:17;;;;;;;2.13;0.70;;;;;;;;;;4907236;28;20103;-74
2022/05/29 11:52:06;;;;;;;2.10;0.70;;;;;;;;;;4912165;28;20136;-73
2022/05/29 11:54:43;;;;;;;;;;;;;;;;;;4908871;28;20118;-72
2022/05/29 11:57:37;;;;;;;1.20;0.77;;;;;;;;;;4911706;28;19960;-75
2022/05/29 12:00:14;;;;;;;4.13;0.80;;;;;;;;;;4899319;28;20699;-74
2022/05/29 12:03:07;;;;;;;1.25;0.60;;;;;;;;;;4911153;28;21894;-76
2022/05/29 12:06:05;;;;;;;1.95;0.65;;;;;;;;;;4910493;29;20031;-74
2022/05/29 12:08:38;;;;;;;1.23;0.60;;;;;;;;;;4937681;28;20052;-75
2022/05/29 12:11:23;;;;;;;;;;;;;;;;;;4939147;28;20509;-73
2022/05/29 12:14:16;;;;;;;1.40;0.60;;;;;;;;;;4924992;28;19930;-73
2022/05/29 12:16:53;;;;;;;4.05;0.70;;;;;;;;;;4939565;28;20146;-72
2022/05/29 12:19:29;;;;;;;2.33;0.80;;;;;;;;;;4935885;28;20874;-75
2022/05/29 12:22:04;;;;;;;0.88;0.70;;;;;;;;;;4924321;28;20613;-75
2022/05/29 12:24:38;;;;;;;2.38;0.93;;;;;;;;;;4906910;28;20039;-72
2022/05/29 12:27:34;;;;;;;2.28;0.98;;;;;;;;;;4910865;28;20404;-73
2022/05/29 12:30:02;;;;;;;2.90;0.60;;;;;;;;;;4921562;28;20043;-74
2022/05/29 12:32:31;;;;;;;1.25;0.60;;;;;;;;;;4912562;29;20494;-73
2022/05/29 12:35:11;;;;;;;1.60;0.80;;;;;;;;;;4914788;28;20437;-76
2022/05/29 12:38:05;;;;;;;1.85;0.80;;;;;;;;;;4911606;28;20657;-74
2022/05/29 12:40:48;;;;;;;3.38;1.00;;;;;;;;;;4910009;28;20050;-74
2022/05/29 12:43:29;;;;;;;3.70;1.10;;;;;;;;;;4908758;28;20035;-74
2022/05/29 12:46:33;;;;;;;3.35;0.88;;;;;;;;;;4910490;28;20845;-75
2022/05/29 12:49:07;;;;;;;1.80;0.88;;;;;;;;;;4908856;28;20048;-75
2022/05/29 12:51:33;;;;;;;2.67;0.88;;;;;;;;;;4908787;28;20110;-75
2022/05/29 12:54:10;;;;;;;1.50;0.77;;;;;;;;;;4911638;28;21850;-76
2022/05/29 12:56:54;;;;;;;1.30;0.70;;;;;;;;;;4916828;29;23264;-74
2022/05/29 12:59:35;;;;;;;3.40;0.85;;;;;;;;;;4915828;29;20591;-74
2022/05/29 13:02:35;;;;;;;1.70;0.80;;;;;;;;;;4913928;28;20411;-76
2022/05/29 13:05:07;;;;;;;3.33;0.80;;;;;;;;;;4898626;29;20047;-75
2022/05/29 13:07:47;;;;;;;1.42;0.60;;;;;;;;;;4913365;28;20122;-74
2022/05/29 13:10:20;;;;;;;1.92;0.60;;;;;;;;;;4915440;28;20074;-75
2022/05/29 13:13:00;;;;;;;0.98;0.65;;;;;;;;;;4915714;29;21503;-76
2022/05/29 13:15:34;;;;;;;2.95;0.77;;;;;;;;;;4913360;28;20047;-74
2022/05/29 13:21:14;;;;;;;3.00;0.65;;;;;;;;;;4914887;28;20557;-75
2022/05/29 13:24:00;;;;;;;2.20;1.13;;;;;;;;;;4916172;28;20037;-76
2022/05/29 13:26:31;;;;;;;1.05;0.80;;;;;;;;;;4917327;28;20413;-74
2022/05/29 13:29:02;;;;;;;5.43;1.13;;;;;;;;;;4914684;28;20044;-75
2022/05/29 13:31:31;;;;;;;1.08;0.70;;;;;;;;;;4935088;28;20091;-78
2022/05/29 13:34:45;;;;;;;1.83;0.90;;;;;;;;;;4916845;28;20117;-76
2022/05/29 13:37:32;;;;;;;1.55;0.77;;;;;;;;;;4906745;29;20035;-75
2022/05/29 13:40:02;;;;;;;2.80;1.00;;;;;;;;;;4913440;29;20066;-74
2022/05/29 13:42:32;;;;;;;2.45;1.20;;;;;;;;;;4911073;29;20052;-75
2022/05/29 13:44:58;;;;;;;3.53;1.60;;;;;;;;;;4941059;28;20046;-75
2022/05/29 13:47:26;;;;;;;3.58;1.20;;;;;;;;;;4909890;29;20400;-76
2022/05/29 13:50:02;;;;;;;1.02;0.98;;;;;;;;;;4910029;28;20046;-74
2022/05/29 13:52:33;;;;;;;2.65;1.20;;;;;;;;;;4942623;28;20048;-75
2022/05/29 13:55:20;;;;;;;1.63;1.10;;;;;;;;;;4914377;29;20090;-76
2022/05/29 14:03:59;;;;;;;2.00;1.00;;;;;;;;;;4913507;28;20054;-75
2022/05/29 14:06:36;;;;;;;2.03;1.15;;;;;;;;;;4927694;28;20043;-73
2022/05/29 14:09:06;;;;;;;2.05;1.10;;;;;;;;;;4912473;28;20048;-76
2022/05/29 14:11:58;;;;;;;1.98;1.10;;;;;;;;;;4940144;28;20134;-74
2022/05/29 14:14:30;;;;;;;2.42;1.10;;;;;;;;;;4912572;28;20056;-73
2022/05/29 14:17:06;;;;;;;1.90;1.00;;;;;;;;;;4910977;28;20036;-73
2022/05/29 14:20:04;;;;;;;1.88;0.95;;;;;;;;;;4912010;28;20524;-75
2022/05/29 14:22:48;;;;;;;1.10;0.90;;;;;;;;;;4912393;28;20047;-74
2022/05/29 14:25:26;;;;;;;2.10;1.20;;;;;;;;;;4911004;28;20796;-74
2022/05/29 14:28:03;;;;;;;4.50;1.30;;;;;;;;;;4910579;28;20036;-73
2022/05/29 14:30:48;;;;;;;2.40;1.25;;;;;;;;;;4911738;28;20040;-73
2022/05/29 14:33:32;;;;;;;3.63;1.48;;;;;;;;;;4910919;28;20044;-73
2022/05/29 14:36:35;;;;;;;1.75;1.10;;;;;;;;;;4939066;28;20043;-76
2022/05/29 14:39:19;;;;;;;2.22;1.30;;;;;;;;;;4911818;28;20047;-76
2022/05/29 14:41:58;;;;;;;4.00;1.35;;;;;;;;;;4910947;28;20110;-75
2022/05/29 14:44:33;;;;;;;4.28;1.30;;;;;;;;;;4913292;29;20074;-74
2022/05/29 14:47:05;;;;;;;2.35;1.00;;;;;;;;;;4910582;29;20134;-75
2022/05/29 14:49:45;;;;;;;2.80;1.20;;;;;;;;;;4911643;28;20047;-74
2022/05/29 14:52:18;;;;;;;1.33;1.20;;;;;;;;;;4940255;28;21660;-76
2022/05/29 14:54:48;;;;;;;4.00;1.15;;;;;;;;;;4911206;28;20090;-74
2022/05/29 14:57:31;;;;;;;1.67;1.10;;;;;;;;;;4911741;28;20051;-75
2022/05/29 15:00:00;;;;;;;3.15;1.27;;;;;;;;;;4912262;28;20039;-76
2022/05/29 15:02:37;;;;;;;1.40;1.30;;;;;;;;;;4910506;29;20598;-74
2022/05/29 15:05:14;;;;;;;1.35;1.10;;;;;;;;;;4911501;28;20110;-75
2022/05/29 15:10:31;;;;;;;1.25;0.90;;;;;;;;;;4909353;28;20046;-75
2022/05/29 15:13:14;;;;;;;2.72;1.10;;;;;;;;;;4909931;28;20043;-74
2022/05/29 15:15:56;;;;;;;1.70;1.08;;;;;;;;;;4911731;28;20050;-75
2022/05/29 15:18:26;;;;;;;2.05;1.20;;;;;;;;;;4912116;28;20044;-74
2022/05/29 15:24:13;;;;;;;1.65;1.13;;;;;;;;;;4911810;28;20070;-75
2022/05/29 15:26:44;;;;;;;1.65;1.00;;;;;;;;;;4910675;29;20035;-75
2022/05/29 15:29:29;;;;;;;2.08;1.20;;;;;;;;;;4909820;29;20137;-75
2022/05/29 15:31:57;;;;;;;1.80;1.15;;;;;;;;;;4910553;28;20071;-74
2022/05/29 15:34:41;;;;;;;2.22;1.08;;;;;;;;;;4907907;28;20087;-74
2022/05/29 15:37:08;;;;;;;1.58;0.95;;;;;;;;;;4906903;29;20047;-75
2022/05/29 15:39:49;;;;;;;1.45;1.05;;;;;;;;;;4909720;28;20070;-75
2022/05/29 15:42:23;;;;;;;2.10;1.00;;;;;;;;;;4907795;28;20054;-75
2022/05/29 15:45:19;;;;;;;1.73;1.10;;;;;;;;;;4907727;28;22090;-74
2022/05/29 15:47:56;;;;;;;1.02;0.93;;;;;;;;;;4906769;28;20032;-76
2022/05/29 15:50:52;;;;;;;2.17;1.30;;;;;;;;;;4908391;29;20023;-74
2022/05/29 15:53:46;;;;;;;1.58;0.95;;;;;;;;;;4905799;29;20055;-73
2022/05/29 15:56:19;;;;;;;2.83;0.60;;;;;;;;;;4914998;28;20143;-73
2022/05/29 15:58:44;;;;;;;1.52;1.13;;;;;;;;;;4910440;28;20455;-74
2022/05/29 16:01:13;;;;;;;1.70;1.20;;;;;;;;;;4909801;28;20130;-74
2022/05/29 16:03:41;;;;;;;2.83;1.30;;;;;;;;;;4909864;28;20712;-74
2022/05/29 16:06:20;;;;;;;1.52;0.82;;;;;;;;;;4924803;28;20043;-74
2022/05/29 16:08:59;;;;;;;1.30;1.00;;;;;;;;;;4908567;28;20032;-73
2022/05/29 16:11:51;;;;;;;0.80;0.80;;;;;;;;;;4908639;29;20039;-74
2022/05/29 16:14:41;;;;;;;3.47;1.20;;;;;;;;;;4909744;29;20043;-74